Time;durP1;ratioP1;P1;durP2;ratioP2;P2;SDS_P1;SDS_P2;PMS_P1;PMS_P2;Temp;Humidity;BMP_temperature;BMP_pressure;BME280_temperature;BME280_humidity;BME280_pressure;Samples;Min_cycle;Max_cycle;Signal;HPM_P1;HPM_P2
2022/09/14 00:01:14;;;;;;;6.38;1.38;;;15.70;99.90;;;;;;5038593;28;20049;-79
2022/09/14 00:03:40;;;;;;;8.95;1.70;;;15.70;99.90;;;;;;5022257;28;20037;-79
2022/09/14 00:06:08;;;;;;;8.40;1.85;;;15.60;99.90;;;;;;5036527;28;20041;-79
2022/09/14 00:08:35;;;;;;;6.85;1.23;;;15.60;99.90;;;;;;5032828;28;20045;-79
2022/09/14 00:11:11;;;;;;;7.30;1.15;;;15.60;99.90;;;;;;5029018;28;20113;-79
2022/09/14 00:13:38;;;;;;;6.25;1.42;;;15.60;99.90;;;;;;5034555;28;20037;-79
2022/09/14 00:16:06;;;;;;;6.50;1.52;;;15.60;99.90;;;;;;5020508;28;20153;-79
2022/09/14 00:18:33;;;;;;;6.28;1.52;;;15.60;99.90;;;;;;4998641;28;20033;-79
2022/09/14 00:21:04;;;;;;;6.57;1.30;;;15.50;99.90;;;;;;5022363;28;20029;-79
2022/09/14 00:23:30;;;;;;;5.38;1.30;;;15.50;99.90;;;;;;5007870;28;20139;-79
2022/09/14 00:26:02;;;;;;;8.00;1.45;;;15.50;99.90;;;;;;5038441;28;20041;-79
2022/09/14 00:28:28;;;;;;;7.72;1.77;;;15.50;99.90;;;;;;5033822;28;20034;-79
2022/09/14 00:30:54;;;;;;;10.18;1.77;;;15.50;99.90;;;;;;5002601;28;20038;-79
2022/09/14 00:33:19;;;;;;;7.82;1.50;;;15.50;99.90;;;;;;5021168;28;20035;-79
2022/09/14 00:35:45;;;;;;;6.65;1.60;;;15.50;99.90;;;;;;5030978;28;20029;-79
2022/09/14 00:38:11;;;;;;;5.53;1.20;;;15.50;99.90;;;;;;5030023;28;20029;-79
2022/09/14 00:40:37;;;;;;;8.98;2.08;;;15.40;99.90;;;;;;5019486;28;20038;-79
2022/09/14 00:43:12;;;;;;;4.45;1.30;;;15.40;99.90;;;;;;5020529;28;20018;-79
2022/09/14 00:45:37;;;;;;;8.38;1.70;;;15.40;99.90;;;;;;5019853;28;20036;-79
2022/09/14 00:48:03;;;;;;;5.40;1.58;;;15.40;99.90;;;;;;5017192;28;20041;-79
2022/09/14 00:50:30;;;;;;;4.00;1.20;;;15.30;99.90;;;;;;5025505;28;20024;-79
2022/09/14 00:52:57;;;;;;;6.47;1.60;;;15.30;99.90;;;;;;5039174;28;20036;-79
2022/09/14 00:55:23;;;;;;;9.50;1.48;;;15.30;99.90;;;;;;5025212;28;20081;-77
2022/09/14 00:57:52;;;;;;;9.20;1.60;;;15.30;99.90;;;;;;5035761;28;20064;-78
2022/09/14 01:00:22;;;;;;;5.70;1.40;;;15.30;99.90;;;;;;5004732;28;20037;-80
2022/09/14 01:02:48;;;;;;;6.47;1.73;;;15.30;99.90;;;;;;5017063;28;20711;-78
2022/09/14 01:05:15;;;;;;;9.40;1.63;;;15.30;99.90;;;;;;5037917;28;20033;-78
2022/09/14 01:08:08;;;;;;;4.45;1.10;;;15.20;99.90;;;;;;5026244;28;20033;-76
2022/09/14 01:10:51;;;;;;;8.18;1.65;;;15.30;99.90;;;;;;5029351;28;20033;-78
2022/09/14 01:13:40;;;;;;;8.45;1.63;;;15.20;99.90;;;;;;5031758;28;20029;-78
2022/09/14 01:16:18;;;;;;;10.15;2.00;;;15.20;99.90;;;;;;5035937;28;20469;-77
2022/09/14 01:18:49;;;;;;;13.85;1.80;;;15.20;99.90;;;;;;5006361;28;20094;-79
2022/09/14 01:21:25;;;;;;;5.25;1.40;;;15.20;99.90;;;;;;4999163;28;20432;-79
2022/09/14 01:24:06;;;;;;;6.43;1.25;;;15.20;99.90;;;;;;5018321;28;20131;-79
2022/09/14 01:26:41;;;;;;;8.38;1.88;;;15.10;99.90;;;;;;5036545;28;20036;-77
2022/09/14 01:29:29;;;;;;;11.60;2.40;;;15.10;99.90;;;;;;5018177;28;20257;-77
2022/09/14 01:32:04;;;;;;;10.07;1.77;;;15.10;99.90;;;;;;5028572;28;20272;-77
2022/09/14 01:34:33;;;;;;;9.57;1.80;;;15.10;99.90;;;;;;5033510;28;20037;-77
2022/09/14 01:37:11;;;;;;;9.60;1.80;;;15.10;99.90;;;;;;5043586;28;20017;-77
2022/09/14 01:39:41;;;;;;;10.43;2.40;;;15.10;99.90;;;;;;5026116;28;20033;-77
2022/09/14 01:42:09;;;;;;;6.32;1.88;;;15.00;99.90;;;;;;5040154;28;20056;-77
2022/09/14 01:44:38;;;;;;;5.45;1.80;;;15.00;99.90;;;;;;5036874;28;20044;-78
2022/09/14 01:47:11;;;;;;;5.25;1.75;;;15.00;99.90;;;;;;5010944;28;20025;-78
2022/09/14 01:49:51;;;;;;;6.65;1.60;;;15.00;99.90;;;;;;5032147;28;20453;-77
2022/09/14 01:52:28;;;;;;;9.88;1.77;;;15.00;99.90;;;;;;5000431;28;20499;-77
2022/09/14 01:55:02;;;;;;;7.95;1.55;;;14.90;99.90;;;;;;5033456;28;20290;-77
2022/09/14 01:57:40;;;;;;;8.57;1.80;;;14.90;99.90;;;;;;5032606;28;20044;-77
2022/09/14 02:00:15;;;;;;;9.88;1.48;;;14.90;99.90;;;;;;4997267;28;20033;-77
2022/09/14 02:02:55;;;;;;;6.65;1.50;;;14.90;99.90;;;;;;5003955;28;20033;-78
2022/09/14 02:05:44;;;;;;;7.63;1.70;;;14.90;99.90;;;;;;5031446;28;20715;-77
2022/09/14 02:08:10;;;;;;;5.97;1.63;;;14.80;99.90;;;;;;5015272;28;20056;-78
2022/09/14 02:10:36;;;;;;;7.28;1.63;;;14.80;99.90;;;;;;5020879;28;20033;-77
2022/09/14 02:13:05;;;;;;;13.48;1.80;;;14.80;99.90;;;;;;5032786;28;20030;-78
2022/09/14 02:15:31;;;;;;;9.32;1.98;;;14.80;99.90;;;;;;5031851;28;20026;-78
2022/09/14 02:17:57;;;;;;;5.80;1.50;;;14.80;99.90;;;;;;5033958;28;20025;-78
2022/09/14 02:20:31;;;;;;;7.28;1.60;;;14.70;99.90;;;;;;5000888;28;20141;-78
2022/09/14 02:22:56;;;;;;;7.25;1.30;;;14.80;99.90;;;;;;5031478;28;20029;-78
2022/09/14 02:25:22;;;;;;;5.88;1.48;;;14.70;99.90;;;;;;5016890;28;20041;-78
2022/09/14 02:27:48;;;;;;;6.35;1.70;;;14.70;99.90;;;;;;5034837;28;20036;-78
2022/09/14 02:30:15;;;;;;;8.55;1.90;;;14.70;99.90;;;;;;5034894;28;20025;-78
2022/09/14 02:32:50;;;;;;;7.35;1.98;;;14.70;99.90;;;;;;5013045;28;20025;-78
2022/09/14 02:35:27;;;;;;;10.38;1.73;;;14.70;99.90;;;;;;5014819;28;20095;-78
2022/09/14 02:38:15;;;;;;;7.90;1.80;;;14.60;99.90;;;;;;4999356;28;20061;-78
2022/09/14 02:40:57;;;;;;;7.30;1.55;;;14.60;99.90;;;;;;5014165;28;20033;-77
2022/09/14 02:43:46;;;;;;;11.38;1.73;;;14.60;99.90;;;;;;5037633;28;20041;-78
2022/09/14 02:46:46;;;;;;;9.43;1.50;;;14.60;99.90;;;;;;5034970;28;20069;-78
2022/09/14 02:49:21;;;;;;;13.52;2.15;;;14.60;99.90;;;;;;5006635;28;20506;-78
2022/09/14 02:51:53;;;;;;;8.65;2.03;;;14.60;99.90;;;;;;5030423;28;20058;-78
2022/09/14 02:54:37;;;;;;;8.23;1.77;;;14.50;99.90;;;;;;5017184;28;20029;-78
2022/09/14 02:57:04;;;;;;;5.20;2.08;;;14.50;99.90;;;;;;5016682;28;20061;-78
2022/09/14 02:59:29;;;;;;;5.85;1.48;;;14.50;99.90;;;;;;5024825;28;20040;-78
2022/09/14 03:01:57;;;;;;;6.05;1.40;;;14.50;99.90;;;;;;5038282;28;20030;-78
2022/09/14 03:04:23;;;;;;;14.05;2.75;;;14.50;99.90;;;;;;5006787;28;20022;-78
2022/09/14 03:06:49;;;;;;;10.20;1.73;;;14.40;99.90;;;;;;5016041;28;20024;-78
2022/09/14 03:09:14;;;;;;;7.78;2.20;;;14.40;99.90;;;;;;5008835;28;20036;-78
2022/09/14 03:11:40;;;;;;;7.55;1.70;;;14.40;99.90;;;;;;5034979;28;20038;-78
2022/09/14 03:14:06;;;;;;;10.23;1.88;;;14.40;99.90;;;;;;5035947;28;20160;-78
2022/09/14 03:16:32;;;;;;;9.95;1.80;;;14.40;99.90;;;;;;5055672;28;20026;-77
2022/09/14 03:18:57;;;;;;;8.68;1.77;;;14.40;99.90;;;;;;5059280;28;20064;-78
2022/09/14 03:21:23;;;;;;;7.20;1.67;;;14.40;99.90;;;;;;5051034;28;20488;-77
2022/09/14 03:23:51;;;;;;;10.30;1.65;;;14.50;99.90;;;;;;5043826;28;20026;-77
2022/09/14 03:26:20;;;;;;;6.15;1.38;;;14.50;99.90;;;;;;5048248;28;20028;-77
2022/09/14 03:28:57;;;;;;;8.90;1.60;;;14.50;99.90;;;;;;5019156;28;20022;-77
2022/09/14 03:31:24;;;;;;;9.05;2.30;;;14.50;99.90;;;;;;5042770;28;20029;-77
2022/09/14 03:33:59;;;;;;;7.47;1.80;;;14.40;99.90;;;;;;5012342;28;20131;-78
2022/09/14 03:36:27;;;;;;;7.35;1.50;;;14.40;99.90;;;;;;5048327;28;20037;-77
2022/09/14 03:38:58;;;;;;;10.57;1.63;;;14.40;99.90;;;;;;5039424;28;20473;-77
2022/09/14 03:41:24;;;;;;;6.38;1.40;;;14.40;99.90;;;;;;5033996;28;20493;-79
2022/09/14 03:43:50;;;;;;;5.53;1.90;;;14.40;99.90;;;;;;5040106;28;20017;-78
2022/09/14 03:46:22;;;;;;;4.55;1.67;;;14.30;99.90;;;;;;5028160;28;20043;-78
2022/09/14 03:48:48;;;;;;;9.52;1.50;;;14.30;99.90;;;;;;5037311;28;20048;-77
2022/09/14 03:51:15;;;;;;;7.28;1.92;;;14.30;99.90;;;;;;5035743;28;20033;-78
2022/09/14 03:53:42;;;;;;;6.97;1.67;;;14.30;99.90;;;;;;5001504;28;20029;-77
2022/09/14 03:56:14;;;;;;;5.75;1.67;;;14.20;99.90;;;;;;5033789;28;20125;-78
2022/09/14 03:58:40;;;;;;;5.05;1.92;;;14.20;99.90;;;;;;5020116;28;20049;-77
2022/09/14 04:01:13;;;;;;;6.80;2.05;;;14.20;99.90;;;;;;5015814;28;20030;-76
2022/09/14 04:03:39;;;;;;;6.47;1.95;;;14.20;99.90;;;;;;5018787;28;20036;-78
2022/09/14 04:06:05;;;;;;;9.25;1.92;;;14.20;99.90;;;;;;5020692;28;20873;-78
2022/09/14 04:08:36;;;;;;;7.60;1.65;;;14.20;99.90;;;;;;5023315;28;20056;-81
2022/09/14 04:11:13;;;;;;;14.77;2.28;;;14.20;99.90;;;;;;5023203;28;20022;-78
2022/09/14 04:13:39;;;;;;;6.47;1.63;;;14.20;99.90;;;;;;5015414;28;20895;-78
2022/09/14 04:16:05;;;;;;;6.88;1.70;;;14.10;99.90;;;;;;5020260;28;20037;-78
2022/09/14 04:18:31;;;;;;;8.18;2.17;;;14.10;99.90;;;;;;5020292;28;20059;-77
2022/09/14 04:20:59;;;;;;;6.68;2.10;;;14.20;99.90;;;;;;5034044;28;20519;-77
2022/09/14 04:23:25;;;;;;;6.05;1.65;;;14.20;99.90;;;;;;5020570;28;20033;-78
2022/09/14 04:25:52;;;;;;;7.00;1.80;;;14.20;99.90;;;;;;5004236;28;20030;-79
2022/09/14 04:28:19;;;;;;;7.05;1.63;;;14.20;99.90;;;;;;5006340;28;20053;-79
2022/09/14 04:30:53;;;;;;;9.43;2.15;;;14.20;99.90;;;;;;5019491;28;20033;-79
2022/09/14 04:33:19;;;;;;;10.15;2.33;;;14.20;99.90;;;;;;5019720;28;20037;-77
2022/09/14 04:35:45;;;;;;;6.22;1.55;;;14.20;99.90;;;;;;5021000;28;20029;-77
2022/09/14 04:38:11;;;;;;;7.43;1.77;;;14.30;99.90;;;;;;5012685;28;20067;-80
2022/09/14 04:40:40;;;;;;;9.75;2.38;;;14.30;99.90;;;;;;5037354;28;20040;-79
2022/09/14 04:43:06;;;;;;;7.97;2.17;;;14.40;99.90;;;;;;5026473;28;20033;-79
2022/09/14 04:45:31;;;;;;;6.97;1.88;;;14.40;99.90;;;;;;5021514;28;20028;-79
2022/09/14 04:47:57;;;;;;;6.03;1.70;;;14.40;99.90;;;;;;5018057;28;20574;-79
2022/09/14 04:50:23;;;;;;;6.93;2.00;;;14.40;99.90;;;;;;5003230;28;20025;-79
2022/09/14 04:52:48;;;;;;;7.95;2.40;;;14.40;99.90;;;;;;5020417;28;20022;-79
2022/09/14 04:55:14;;;;;;;8.32;2.00;;;14.50;99.90;;;;;;5036375;28;20812;-79
2022/09/14 04:57:40;;;;;;;7.38;2.05;;;14.50;99.90;;;;;;5017919;28;20041;-79
2022/09/14 05:00:08;;;;;;;9.20;2.50;;;14.50;99.90;;;;;;5024606;28;20025;-77
2022/09/14 05:02:33;;;;;;;7.63;2.33;;;14.50;99.90;;;;;;5002296;28;20025;-80
2022/09/14 05:04:59;;;;;;;7.82;1.92;;;14.50;99.90;;;;;;5014691;28;20043;-79
2022/09/14 05:07:26;;;;;;;7.75;2.17;;;14.50;99.90;;;;;;5023922;28;20106;-79
2022/09/14 05:09:51;;;;;;;9.85;2.00;;;14.50;99.90;;;;;;5037371;28;20021;-79
2022/09/14 05:12:17;;;;;;;7.53;2.03;;;14.50;99.90;;;;;;5005798;28;22387;-78
2022/09/14 05:14:43;;;;;;;13.32;2.20;;;14.50;99.90;;;;;;5025899;28;20037;-79
2022/09/14 05:17:09;;;;;;;6.78;1.90;;;14.50;99.90;;;;;;5040829;28;20030;-78
2022/09/14 05:19:35;;;;;;;6.28;1.73;;;14.50;99.90;;;;;;5023299;28;20140;-79
2022/09/14 05:22:01;;;;;;;14.77;2.50;;;14.60;99.90;;;;;;5034717;28;20060;-80
2022/09/14 05:24:27;;;;;;;6.43;1.70;;;14.60;99.90;;;;;;5022627;28;20064;-79
2022/09/14 05:26:54;;;;;;;9.10;1.67;;;14.60;99.90;;;;;;5031918;28;20121;-79
2022/09/14 05:29:20;;;;;;;6.60;1.67;;;14.60;99.90;;;;;;5040066;28;20056;-79
2022/09/14 05:31:46;;;;;;;7.07;1.92;;;14.60;99.90;;;;;;5020772;28;20021;-75
2022/09/14 05:34:13;;;;;;;5.82;2.00;;;14.60;99.90;;;;;;5023242;28;20029;-79
2022/09/14 05:36:39;;;;;;;8.35;2.40;;;14.70;99.90;;;;;;5013675;28;20038;-77
2022/09/14 05:39:06;;;;;;;6.95;1.73;;;14.70;99.90;;;;;;5008679;28;20143;-79
2022/09/14 05:41:32;;;;;;;8.57;2.38;;;14.70;99.90;;;;;;5018231;28;20175;-83
2022/09/14 05:43:59;;;;;;;6.57;1.98;;;14.70;99.90;;;;;;5034067;28;20168;-82
2022/09/14 05:46:25;;;;;;;8.40;2.65;;;14.70;99.90;;;;;;5014037;28;20022;-79
2022/09/14 05:48:51;;;;;;;7.63;2.05;;;14.70;99.90;;;;;;5015242;28;20028;-75
2022/09/14 05:51:19;;;;;;;8.30;2.10;;;14.70;99.90;;;;;;5012537;28;20033;-76
2022/09/14 05:53:54;;;;;;;9.65;2.42;;;14.70;99.90;;;;;;5026923;28;20729;-75
2022/09/14 05:56:21;;;;;;;7.05;2.10;;;14.70;99.90;;;;;;5008325;28;20091;-75
2022/09/14 05:58:47;;;;;;;8.45;2.28;;;14.70;99.90;;;;;;5028095;28;20029;-76
2022/09/14 06:01:19;;;;;;;6.05;1.88;;;14.70;99.90;;;;;;5009409;28;20591;-75
2022/09/14 06:03:45;;;;;;;7.18;1.73;;;14.70;99.90;;;;;;5008444;28;20070;-76
2022/09/14 06:06:14;;;;;;;9.50;2.15;;;15.00;99.90;;;;;;5004417;28;20026;-78
2022/09/14 06:08:40;;;;;;;6.63;2.10;;;15.10;99.90;;;;;;5023659;28;20022;-76
2022/09/14 06:11:14;;;;;;;10.18;2.25;;;14.90;99.90;;;;;;5014756;28;20152;-76
2022/09/14 06:13:40;;;;;;;7.97;2.45;;;14.90;99.90;;;;;;5005371;28;20029;-74
2022/09/14 06:16:11;;;;;;;10.48;2.30;;;14.90;99.90;;;;;;5029437;28;20038;-75
2022/09/14 06:18:39;;;;;;;11.68;2.30;;;14.90;99.90;;;;;;5010730;28;20104;-78
2022/09/14 06:21:05;;;;;;;6.82;2.47;;;14.90;99.90;;;;;;5035087;28;20053;-79
2022/09/14 06:23:31;;;;;;;8.48;2.15;;;15.00;99.90;;;;;;5030929;28;20033;-78
2022/09/14 06:25:59;;;;;;;8.05;2.65;;;15.10;99.90;;;;;;5016789;28;20036;-78
2022/09/14 06:28:26;;;;;;;12.77;2.75;;;15.10;99.90;;;;;;5021481;28;20057;-78
2022/09/14 06:30:52;;;;;;;8.77;2.67;;;15.20;99.90;;;;;;5030787;28;20068;-78
2022/09/14 06:33:18;;;;;;;8.80;2.40;;;15.10;99.90;;;;;;5038632;28;20041;-79
2022/09/14 06:36:11;;;;;;;7.63;2.20;;;15.20;99.90;;;;;;5033595;28;20034;-78
2022/09/14 06:38:37;;;;;;;10.73;2.10;;;15.20;99.90;;;;;;5016305;28;20068;-78
2022/09/14 06:41:05;;;;;;;7.38;1.92;;;15.20;99.90;;;;;;5012603;28;20112;-79
2022/09/14 06:43:36;;;;;;;8.23;2.20;;;15.20;99.90;;;;;;5015106;28;20032;-79
2022/09/14 06:46:13;;;;;;;4.88;2.00;;;15.20;99.90;;;;;;5011401;28;20049;-79
2022/09/14 06:48:46;;;;;;;7.93;2.22;;;15.30;99.90;;;;;;5013376;28;20030;-79
2022/09/14 06:51:21;;;;;;;5.93;2.00;;;15.30;99.90;;;;;;5015997;28;20082;-78
2022/09/14 06:53:52;;;;;;;5.47;1.90;;;15.30;99.90;;;;;;5018985;28;20029;-79
2022/09/14 06:56:19;;;;;;;10.07;2.58;;;15.30;99.90;;;;;;5018351;28;20508;-80
2022/09/14 06:58:45;;;;;;;8.15;2.90;;;15.30;99.90;;;;;;5023241;28;20033;-79
2022/09/14 07:01:13;;;;;;;7.60;2.30;;;15.30;99.90;;;;;;5006490;28;20059;-79
2022/09/14 07:03:40;;;;;;;4.47;1.90;;;15.40;99.90;;;;;;5043360;28;20036;-78
2022/09/14 07:06:14;;;;;;;11.88;2.35;;;15.40;99.90;;;;;;5019644;28;20362;-78
2022/09/14 07:08:40;;;;;;;7.55;2.00;;;15.40;99.90;;;;;;5012567;28;20117;-76
2022/09/14 07:11:08;;;;;;;7.70;2.10;;;15.40;99.90;;;;;;5013577;28;20458;-78
2022/09/14 07:13:34;;;;;;;5.28;1.67;;;15.40;99.90;;;;;;5034429;28;20033;-78
2022/09/14 07:16:02;;;;;;;9.07;2.13;;;15.30;99.90;;;;;;5036942;28;20040;-78
2022/09/14 07:18:31;;;;;;;8.98;2.17;;;15.30;99.90;;;;;;5029259;28;20064;-78
2022/09/14 07:21:12;;;;;;;10.45;3.22;;;15.30;99.90;;;;;;4995488;28;20036;-77
2022/09/14 07:23:41;;;;;;;6.60;2.35;;;15.40;99.90;;;;;;5018510;28;20025;-78
2022/09/14 07:26:11;;;;;;;10.95;2.72;;;15.40;99.90;;;;;;5019862;28;20108;-79
2022/09/14 07:28:38;;;;;;;7.53;2.60;;;15.50;99.90;;;;;;5032094;28;20339;-79
2022/09/14 07:31:12;;;;;;;6.68;2.58;;;15.60;99.90;;;;;;5037244;28;20301;-78
2022/09/14 07:33:38;;;;;;;11.10;2.33;;;15.60;99.90;;;;;;5038335;28;20029;-78
2022/09/14 07:36:06;;;;;;;8.00;2.03;;;15.70;99.90;;;;;;5027562;28;20068;-78
2022/09/14 07:38:32;;;;;;;10.80;2.50;;;15.70;99.90;;;;;;5020966;28;20104;-77
2022/09/14 07:40:59;;;;;;;9.52;2.53;;;15.70;99.90;;;;;;5021731;28;20034;-79
2022/09/14 07:43:24;;;;;;;9.75;2.05;;;15.70;99.90;;;;;;5030127;28;20470;-79
2022/09/14 07:45:50;;;;;;;8.52;2.53;;;15.80;99.90;;;;;;5034627;28;20040;-78
2022/09/14 07:48:16;;;;;;;6.78;1.70;;;15.90;99.90;;;;;;5048428;28;20029;-78
2022/09/14 07:50:41;;;;;;;5.30;1.95;;;16.00;99.90;;;;;;5028691;28;20041;-79
2022/09/14 07:53:07;;;;;;;8.55;1.83;;;16.00;99.90;;;;;;5033366;28;20033;-78
2022/09/14 07:55:33;;;;;;;10.85;2.10;;;16.10;99.90;;;;;;5033571;28;20848;-77
2022/09/14 07:57:58;;;;;;;8.20;2.20;;;16.10;99.90;;;;;;5031990;28;20032;-77
2022/09/14 08:00:24;;;;;;;12.32;2.45;;;16.20;99.90;;;;;;5014552;28;20030;-77
2022/09/14 08:02:54;;;;;;;14.40;2.78;;;16.20;99.90;;;;;;5040191;28;20021;-78
2022/09/14 08:05:21;;;;;;;6.87;2.27;;;16.30;99.90;;;;;;5036014;28;20060;-78
2022/09/14 08:07:53;;;;;;;8.73;2.22;;;16.30;99.90;;;;;;5046893;28;20434;-78
2022/09/14 08:10:19;;;;;;;5.97;1.52;;;16.40;99.90;;;;;;5031527;28;20033;-78
2022/09/14 08:12:48;;;;;;;5.43;1.60;;;16.60;99.90;;;;;;5041393;28;20034;-78
2022/09/14 08:15:14;;;;;;;10.05;2.35;;;16.70;99.90;;;;;;5042453;28;20118;-78
2022/09/14 08:17:40;;;;;;;8.45;1.60;;;16.90;99.90;;;;;;5025257;28;20084;-79
2022/09/14 08:20:06;;;;;;;8.48;1.95;;;17.00;99.90;;;;;;5041521;28;20033;-78
2022/09/14 08:22:32;;;;;;;14.90;2.28;;;17.10;99.90;;;;;;5023151;28;20152;-78
2022/09/14 08:24:57;;;;;;;8.85;1.55;;;17.10;99.90;;;;;;5043157;28;20045;-78
2022/09/14 08:27:23;;;;;;;6.20;1.60;;;17.20;99.90;;;;;;5023224;28;20021;-79
2022/09/14 08:29:49;;;;;;;6.93;1.80;;;17.30;99.90;;;;;;5038441;28;20049;-78
2022/09/14 08:32:14;;;;;;;8.35;2.10;;;17.30;99.90;;;;;;5038038;28;20343;-77
2022/09/14 08:34:40;;;;;;;8.85;1.92;;;17.30;99.90;;;;;;5027428;28;20102;-77
2022/09/14 08:37:06;;;;;;;3.80;1.10;;;17.40;99.90;;;;;;5022671;28;20034;-78
2022/09/14 08:39:31;;;;;;;8.95;1.92;;;17.40;99.90;;;;;;5024882;28;20068;-77
2022/09/14 08:41:59;;;;;;;7.57;2.05;;;17.40;99.90;;;;;;5025334;28;20091;-79
2022/09/14 08:44:56;;;;;;;7.78;1.55;;;17.50;99.90;;;;;;5040751;28;20029;-79
2022/09/14 08:47:38;;;;;;;8.15;1.73;;;17.40;99.90;;;;;;5022969;28;20041;-77
2022/09/14 08:50:17;;;;;;;6.93;1.45;;;17.50;99.90;;;;;;5047229;28;20032;-79
2022/09/14 08:52:48;;;;;;;3.40;1.52;;;17.60;99.90;;;;;;5042344;28;20075;-78
2022/09/14 08:55:26;;;;;;;;;;;17.70;99.90;;;;;;5027190;28;20037;-79
2022/09/14 08:58:24;;;;;;;9.63;1.92;;;17.70;99.90;;;;;;5036455;28;20338;-79
2022/09/14 09:01:15;;;;;;;6.88;1.42;;;17.70;99.90;;;;;;5030427;28;20037;-81
2022/09/14 09:04:08;;;;;;;8.55;1.20;;;17.90;99.90;;;;;;5031454;28;20034;-80
2022/09/14 09:06:59;;;;;;;10.23;1.73;;;17.90;99.90;;;;;;5020517;28;20026;-79
2022/09/14 09:09:47;;;;;;;5.10;1.42;;;18.00;99.90;;;;;;5054999;28;20044;-77
2022/09/14 09:12:20;;;;;;;6.97;1.60;;;18.10;99.90;;;;;;5044995;28;20030;-78
2022/09/14 09:15:33;;;;;;;9.00;1.30;;;18.20;99.90;;;;;;5029994;28;20037;-77
2022/09/14 09:18:05;;;;;;;5.25;1.35;;;18.20;99.90;;;;;;4994562;28;20104;-78
2022/09/14 09:20:34;;;;;;;5.75;1.25;;;18.10;99.90;;;;;;5042626;28;20159;-78
2022/09/14 09:23:10;;;;;;;4.85;1.10;;;18.10;99.90;;;;;;5010956;28;20025;-79
2022/09/14 09:26:00;;;;;;;6.22;1.35;;;18.00;99.90;;;;;;5041520;28;20049;-79
2022/09/14 09:28:27;;;;;;;4.72;1.05;;;18.00;99.90;;;;;;4997285;28;20044;-78
2022/09/14 09:30:56;;;;;;;5.22;1.45;;;18.10;99.90;;;;;;5022485;28;20030;-78
2022/09/14 09:33:25;;;;;;;6.22;1.90;;;18.00;99.90;;;;;;5029432;28;20052;-79
2022/09/14 09:35:53;;;;;;;6.88;1.73;;;18.00;99.90;;;;;;5031664;28;20091;-77
2022/09/14 09:38:24;;;;;;;7.55;1.60;;;18.10;99.90;;;;;;5028411;28;20089;-79
2022/09/14 09:40:59;;;;;;;7.07;1.65;;;18.10;99.90;;;;;;5023209;28;20021;-78
2022/09/14 09:43:25;;;;;;;8.27;2.08;;;18.10;99.90;;;;;;5038630;28;20098;-79
2022/09/14 09:45:58;;;;;;;6.78;1.70;;;18.20;99.90;;;;;;5039912;28;20056;-78
2022/09/14 09:48:37;;;;;;;6.97;1.70;;;18.20;99.90;;;;;;5027594;28;20017;-79
2022/09/14 09:51:06;;;;;;;6.55;1.48;;;18.20;99.90;;;;;;5024946;28;20112;-78
2022/09/14 09:53:35;;;;;;;6.63;1.40;;;18.10;99.90;;;;;;5029563;28;20025;-79
2022/09/14 09:56:02;;;;;;;7.70;1.45;;;18.10;99.90;;;;;;5027442;28;20372;-77
2022/09/14 09:58:37;;;;;;;11.02;1.70;;;18.30;99.90;;;;;;5040516;28;20030;-78
2022/09/14 10:01:05;;;;;;;6.18;1.48;;;18.40;99.90;;;;;;5027586;28;20030;-79
2022/09/14 10:03:37;;;;;;;7.15;1.40;;;18.50;99.90;;;;;;5026877;28;20029;-79
2022/09/14 10:06:08;;;;;;;7.53;1.30;;;18.60;99.90;;;;;;5033329;28;20093;-78
2022/09/14 10:08:43;;;;;;;4.05;0.95;;;18.50;99.90;;;;;;5029258;28;20124;-79
2022/09/14 10:11:32;;;;;;;5.88;1.55;;;18.50;99.90;;;;;;5019621;28;20075;-77
2022/09/14 10:13:58;;;;;;;3.92;1.02;;;18.50;99.90;;;;;;5027635;28;20029;-78
2022/09/14 10:16:28;;;;;;;7.22;2.40;;;18.40;99.90;;;;;;5022587;28;20041;-75
2022/09/14 10:18:54;;;;;;;7.07;1.65;;;18.40;99.90;;;;;;5004617;28;20431;-76
2022/09/14 10:21:22;;;;;;;9.82;1.92;;;18.30;99.90;;;;;;5029484;28;20449;-76
2022/09/14 10:24:16;;;;;;;4.65;1.00;;;18.40;99.90;;;;;;5027193;28;20061;-76
2022/09/14 10:26:42;;;;;;;7.28;1.40;;;18.40;99.90;;;;;;5013570;28;20030;-75
2022/09/14 10:29:29;;;;;;;5.60;1.27;;;18.30;99.90;;;;;;5029775;28;20525;-74
2022/09/14 10:32:22;;;;;;;6.57;1.60;;;18.30;99.90;;;;;;5027528;28;20033;-74
2022/09/14 10:34:50;;;;;;;5.00;1.75;;;18.50;99.90;;;;;;5016746;28;20120;-77
2022/09/14 10:37:40;;;;;;;7.78;1.63;;;18.60;99.90;;;;;;5017807;28;20052;-77
2022/09/14 10:40:15;;;;;;;5.68;1.25;;;18.70;99.90;;;;;;5012779;28;20026;-77
2022/09/14 10:43:00;;;;;;;8.63;1.63;;;18.60;99.90;;;;;;5015301;28;20175;-76
2022/09/14 10:45:40;;;;;;;6.90;1.83;;;18.50;99.90;;;;;;4995885;28;20053;-76
2022/09/14 10:48:11;;;;;;;6.68;1.48;;;18.50;99.90;;;;;;5014171;28;20086;-77
2022/09/14 10:51:06;;;;;;;7.38;1.13;;;18.40;99.90;;;;;;5011184;28;20021;-76
2022/09/14 10:54:03;;;;;;;11.25;1.60;;;18.30;99.90;;;;;;5030408;28;20223;-77
2022/09/14 10:57:07;;;;;;;6.80;1.67;;;18.30;99.90;;;;;;5012992;28;20021;-77
2022/09/14 10:59:57;;;;;;;5.55;1.25;;;18.30;99.90;;;;;;4931855;29;20035;-77
2022/09/14 11:02:23;;;;;;;4.80;1.23;;;18.50;99.90;;;;;;4928003;29;20133;-77
2022/09/14 11:05:07;;;;;;;10.07;1.67;;;18.70;99.90;;;;;;4929930;29;20040;-77
2022/09/14 11:07:51;;;;;;;9.68;1.40;;;19.20;99.90;;;;;;4905385;29;20032;-77
2022/09/14 11:10:51;;;;;;;6.53;1.50;;;19.80;99.70;;;;;;4913884;29;20043;-77
2022/09/14 11:13:33;;;;;;;7.65;1.40;;;20.40;98.80;;;;;;4908136;29;20035;-77
2022/09/14 11:16:31;;;;;;;6.68;1.50;;;20.70;98.10;;;;;;4933017;28;20567;-77
2022/09/14 11:19:20;;;;;;;7.22;1.33;;;20.10;97.90;;;;;;4935882;29;20044;-77
2022/09/14 11:22:21;;;;;;;10.23;2.08;;;19.70;99.10;;;;;;4927386;29;20495;-77
2022/09/14 11:24:55;;;;;;;10.95;3.05;;;19.30;99.90;;;;;;4921750;29;20051;-76
2022/09/14 11:27:38;;;;;;;9.15;1.60;;;19.20;99.90;;;;;;4919563;29;20035;-77
2022/09/14 11:30:32;;;;;;;7.72;1.70;;;19.10;99.90;;;;;;4977351;28;20037;-77
2022/09/14 11:33:10;;;;;;;10.18;1.98;;;19.10;99.90;;;;;;5026460;28;20037;-77
2022/09/14 11:35:46;;;;;;;10.23;1.50;;;18.90;99.90;;;;;;5017859;28;20401;-77
2022/09/14 11:38:26;;;;;;;5.55;1.70;;;18.80;99.90;;;;;;5033700;28;20029;-77
2022/09/14 11:41:20;;;;;;;10.27;1.75;;;18.60;99.90;;;;;;5000216;28;21254;-77
2022/09/14 11:44:05;;;;;;;7.20;1.55;;;18.50;99.90;;;;;;5019900;28;20469;-78
2022/09/14 11:46:45;;;;;;;6.05;1.98;;;18.30;99.90;;;;;;5019639;28;20041;-77
2022/09/14 11:49:15;;;;;;;8.57;1.58;;;18.20;99.90;;;;;;5023081;28;20121;-77
2022/09/14 11:51:53;;;;;;;8.55;1.50;;;18.10;99.90;;;;;;5025021;28;20033;-76
2022/09/14 11:54:21;;;;;;;8.02;1.35;;;18.00;99.90;;;;;;5020730;28;20025;-77
2022/09/14 11:56:55;;;;;;;9.45;1.90;;;17.90;99.90;;;;;;5018308;28;20517;-77
2022/09/14 11:59:55;;;;;;;7.22;1.50;;;17.90;99.90;;;;;;5021249;28;20025;-79
2022/09/14 12:02:24;;;;;;;8.88;1.60;;;17.80;99.90;;;;;;5033051;28;20033;-77
2022/09/14 12:05:05;;;;;;;5.85;1.45;;;17.80;99.90;;;;;;5016667;28;20530;-77
2022/09/14 12:07:50;;;;;;;9.02;2.40;;;17.80;99.90;;;;;;5038180;28;20120;-77
2022/09/14 12:10:19;;;;;;;17.90;2.75;;;17.80;99.90;;;;;;5037195;28;20087;-78
2022/09/14 12:12:52;;;;;;;6.95;2.00;;;17.80;99.90;;;;;;5034441;28;20108;-76
2022/09/14 12:15:23;;;;;;;6.80;1.50;;;17.80;99.90;;;;;;5032280;28;20037;-77
2022/09/14 12:18:04;;;;;;;11.00;1.50;;;18.00;99.90;;;;;;5031906;28;20056;-77
2022/09/14 12:20:42;;;;;;;6.78;1.80;;;18.10;99.90;;;;;;5036017;28;20099;-77
2022/09/14 12:23:32;;;;;;;8.73;1.80;;;18.20;99.90;;;;;;5037287;28;20421;-77
2022/09/14 12:26:11;;;;;;;8.70;1.70;;;18.30;99.90;;;;;;5028836;28;20109;-77
2022/09/14 12:28:36;;;;;;;4.88;1.50;;;18.40;99.90;;;;;;5020971;28;20112;-78
2022/09/14 12:31:02;;;;;;;13.07;2.47;;;18.50;99.90;;;;;;5033746;28;20061;-78
2022/09/14 12:34:06;;;;;;;6.60;1.88;;;19.00;99.90;;;;;;5020505;28;20097;-77
2022/09/14 12:36:32;;;;;;;8.13;1.75;;;19.60;99.90;;;;;;4994679;28;20033;-79
2022/09/14 12:38:57;;;;;;;9.18;1.73;;;19.70;99.90;;;;;;5047931;28;20021;-78
2022/09/14 12:41:23;;;;;;;10.30;2.42;;;19.70;99.90;;;;;;5021279;28;20393;-79
2022/09/14 12:43:49;;;;;;;7.90;1.80;;;19.50;99.90;;;;;;5013517;28;20025;-78
2022/09/14 12:46:21;;;;;;;12.35;1.98;;;19.40;99.90;;;;;;5010351;28;20048;-78
2022/09/14 12:51:27;;;;;;;9.63;2.40;;;19.00;99.90;;;;;;5039866;28;20025;-77
2022/09/14 12:54:08;;;;;;;11.38;2.70;;;18.80;99.90;;;;;;5041405;28;20025;-78
2022/09/14 12:56:42;;;;;;;;;;;18.60;99.90;;;;;;5038651;28;20081;-78
2022/09/14 12:59:34;;;;;;;7.70;1.80;;;18.50;99.90;;;;;;5017250;28;19913;-77
2022/09/14 13:02:12;;;;;;;8.30;2.10;;;18.60;99.90;;;;;;5025757;28;20044;-77
2022/09/14 13:04:44;;;;;;;9.98;1.95;;;18.70;99.90;;;;;;5011918;28;20030;-77
2022/09/14 13:07:16;;;;;;;7.85;1.50;;;18.80;99.90;;;;;;5019897;28;20043;-77
2022/09/14 13:09:51;;;;;;;9.07;2.30;;;19.10;99.90;;;;;;5033098;28;20501;-75
2022/09/14 13:12:40;;;;;;;10.48;2.05;;;19.20;99.90;;;;;;5011213;28;20077;-76
2022/09/14 13:15:31;;;;;;;7.30;1.52;;;19.10;99.90;;;;;;5011679;28;20463;-75